sensor_id;sensor_type;location;lat;lon;timestamp;P1;durP1;ratioP1;P2;durP2;ratioP2
66270;SDS011;53063;39.614;8.814;2023-04-24T00:01:47;15.30;;;4.78;;
66270;SDS011;53063;39.614;8.814;2023-04-24T00:04:13;18.67;;;6.72;;
66270;SDS011;53063;39.614;8.814;2023-04-24T00:06:41;13.65;;;5.30;;
66270;SDS011;53063;39.614;8.814;2023-04-24T00:09:08;16.77;;;5.68;;
66270;SDS011;53063;39.614;8.814;2023-04-24T00:11:35;21.88;;;5.95;;
66270;SDS011;53063;39.614;8.814;2023-04-24T00:14:02;10.40;;;4.90;;
66270;SDS011;53063;39.614;8.814;2023-04-24T00:16:28;15.27;;;5.07;;
66270;SDS011;53063;39.614;8.814;2023-04-24T00:18:54;13.30;;;5.68;;
66270;SDS011;53063;39.614;8.814;2023-04-24T00:21:20;15.32;;;5.18;;
66270;SDS011;53063;39.614;8.814;2023-04-24T00:23:46;11.50;;;5.45;;
66270;SDS011;53063;39.614;8.814;2023-04-24T00:26:13;13.00;;;4.57;;
66270;SDS011;53063;39.614;8.814;2023-04-24T00:28:39;11.40;;;4.20;;
66270;SDS011;53063;39.614;8.814;2023-04-24T00:31:05;11.93;;;4.57;;
66270;SDS011;53063;39.614;8.814;2023-04-24T00:33:31;14.07;;;4.40;;
66270;SDS011;53063;39.614;8.814;2023-04-24T00:35:57;13.05;;;4.40;;
66270;SDS011;53063;39.614;8.814;2023-04-24T00:38:23;12.10;;;5.13;;
66270;SDS011;53063;39.614;8.814;2023-04-24T00:40:49;12.85;;;4.90;;
66270;SDS011;53063;39.614;8.814;2023-04-24T00:43:16;13.65;;;4.65;;
66270;SDS011;53063;39.614;8.814;2023-04-24T00:45:42;11.98;;;4.60;;
66270;SDS011;53063;39.614;8.814;2023-04-24T00:48:08;9.13;;;4.10;;
66270;SDS011;53063;39.614;8.814;2023-04-24T00:50:36;13.45;;;5.25;;
66270;SDS011;53063;39.614;8.814;2023-04-24T00:53:02;17.88;;;5.95;;
66270;SDS011;53063;39.614;8.814;2023-04-24T00:55:27;13.20;;;5.20;;
66270;SDS011;53063;39.614;8.814;2023-04-24T00:57:54;13.85;;;4.47;;
66270;SDS011;53063;39.614;8.814;2023-04-24T01:00:20;11.40;;;4.40;;
66270;SDS011;53063;39.614;8.814;2023-04-24T01:02:47;17.40;;;5.40;;
66270;SDS011;53063;39.614;8.814;2023-04-24T01:05:14;13.30;;;5.05;;
66270;SDS011;53063;39.614;8.814;2023-04-24T01:07:43;20.25;;;5.43;;
66270;SDS011;53063;39.614;8.814;2023-04-24T01:10:10;11.70;;;4.53;;
66270;SDS011;53063;39.614;8.814;2023-04-24T01:12:38;14.13;;;4.72;;
66270;SDS011;53063;39.614;8.814;2023-04-24T01:15:04;10.15;;;4.82;;
66270;SDS011;53063;39.614;8.814;2023-04-24T01:17:32;12.95;;;4.80;;
66270;SDS011;53063;39.614;8.814;2023-04-24T01:19:58;10.40;;;4.43;;
66270;SDS011;53063;39.614;8.814;2023-04-24T01:22:26;10.35;;;3.97;;
66270;SDS011;53063;39.614;8.814;2023-04-24T01:24:52;12.00;;;4.35;;
66270;SDS011;53063;39.614;8.814;2023-04-24T01:27:18;8.55;;;4.55;;
66270;SDS011;53063;39.614;8.814;2023-04-24T01:29:45;11.52;;;4.70;;
66270;SDS011;53063;39.614;8.814;2023-04-24T01:32:14;10.45;;;4.57;;
66270;SDS011;53063;39.614;8.814;2023-04-24T01:34:40;11.35;;;4.03;;
66270;SDS011;53063;39.614;8.814;2023-04-24T01:37:07;12.88;;;4.50;;
66270;SDS011;53063;39.614;8.814;2023-04-24T01:39:33;7.35;;;4.28;;
66270;SDS011;53063;39.614;8.814;2023-04-24T01:41:59;15.70;;;4.70;;
66270;SDS011;53063;39.614;8.814;2023-04-24T01:44:27;11.80;;;4.43;;
66270;SDS011;53063;39.614;8.814;2023-04-24T01:46:54;12.98;;;4.35;;
66270;SDS011;53063;39.614;8.814;2023-04-24T01:49:20;10.85;;;4.63;;
66270;SDS011;53063;39.614;8.814;2023-04-24T01:51:46;10.45;;;3.90;;
66270;SDS011;53063;39.614;8.814;2023-04-24T01:54:12;13.13;;;4.47;;
66270;SDS011;53063;39.614;8.814;2023-04-24T01:56:42;10.93;;;4.47;;
66270;SDS011;53063;39.614;8.814;2023-04-24T01:59:09;10.43;;;4.65;;
66270;SDS011;53063;39.614;8.814;2023-04-24T02:01:37;13.07;;;5.10;;
66270;SDS011;53063;39.614;8.814;2023-04-24T02:04:04;10.93;;;4.93;;
66270;SDS011;53063;39.614;8.814;2023-04-24T02:06:31;14.20;;;5.15;;
66270;SDS011;53063;39.614;8.814;2023-04-24T02:08:59;15.75;;;4.57;;
66270;SDS011;53063;39.614;8.814;2023-04-24T02:11:27;12.93;;;4.20;;
66270;SDS011;53063;39.614;8.814;2023-04-24T02:13:53;7.78;;;4.20;;
66270;SDS011;53063;39.614;8.814;2023-04-24T02:16:19;12.88;;;4.28;;
66270;SDS011;53063;39.614;8.814;2023-04-24T02:18:45;10.13;;;3.92;;
66270;SDS011;53063;39.614;8.814;2023-04-24T02:21:11;12.38;;;4.28;;
66270;SDS011;53063;39.614;8.814;2023-04-24T02:23:36;9.52;;;3.75;;
66270;SDS011;53063;39.614;8.814;2023-04-24T02:26:03;11.40;;;3.78;;
66270;SDS011;53063;39.614;8.814;2023-04-24T02:28:30;10.90;;;3.83;;
66270;SDS011;53063;39.614;8.814;2023-04-24T02:30:55;12.65;;;4.05;;
66270;SDS011;53063;39.614;8.814;2023-04-24T02:33:21;11.18;;;3.90;;
66270;SDS011;53063;39.614;8.814;2023-04-24T02:35:47;8.30;;;3.88;;
66270;SDS011;53063;39.614;8.814;2023-04-24T02:38:13;13.35;;;3.90;;
66270;SDS011;53063;39.614;8.814;2023-04-24T02:40:42;10.05;;;4.10;;
66270;SDS011;53063;39.614;8.814;2023-04-24T02:43:09;12.02;;;3.47;;
66270;SDS011;53063;39.614;8.814;2023-04-24T02:45:36;7.80;;;3.90;;
66270;SDS011;53063;39.614;8.814;2023-04-24T02:48:03;13.80;;;3.95;;
66270;SDS011;53063;39.614;8.814;2023-04-24T02:50:29;7.38;;;3.72;;
66270;SDS011;53063;39.614;8.814;2023-04-24T02:52:55;9.25;;;4.03;;
66270;SDS011;53063;39.614;8.814;2023-04-24T02:55:20;16.35;;;3.95;;
66270;SDS011;53063;39.614;8.814;2023-04-24T02:57:46;12.02;;;3.83;;
66270;SDS011;53063;39.614;8.814;2023-04-24T03:00:13;9.63;;;3.50;;
66270;SDS011;53063;39.614;8.814;2023-04-24T03:02:39;9.77;;;3.95;;
66270;SDS011;53063;39.614;8.814;2023-04-24T03:05:05;8.95;;;3.72;;
66270;SDS011;53063;39.614;8.814;2023-04-24T03:07:32;9.43;;;4.00;;
66270;SDS011;53063;39.614;8.814;2023-04-24T03:09:58;10.90;;;4.13;;
66270;SDS011;53063;39.614;8.814;2023-04-24T03:12:25;11.55;;;3.83;;
66270;SDS011;53063;39.614;8.814;2023-04-24T03:14:51;16.55;;;4.68;;
66270;SDS011;53063;39.614;8.814;2023-04-24T03:17:18;10.35;;;3.90;;
66270;SDS011;53063;39.614;8.814;2023-04-24T03:19:44;17.58;;;4.03;;
66270;SDS011;53063;39.614;8.814;2023-04-24T03:22:11;6.50;;;3.08;;
66270;SDS011;53063;39.614;8.814;2023-04-24T03:24:38;11.68;;;3.90;;
66270;SDS011;53063;39.614;8.814;2023-04-24T03:27:05;13.98;;;4.15;;
66270;SDS011;53063;39.614;8.814;2023-04-24T03:29:53;9.43;;;3.95;;
66270;SDS011;53063;39.614;8.814;2023-04-24T03:32:25;8.32;;;3.85;;
66270;SDS011;53063;39.614;8.814;2023-04-24T03:34:51;12.02;;;3.92;;
66270;SDS011;53063;39.614;8.814;2023-04-24T03:37:17;10.07;;;3.15;;
66270;SDS011;53063;39.614;8.814;2023-04-24T03:39:50;12.05;;;3.72;;
66270;SDS011;53063;39.614;8.814;2023-04-24T03:42:20;10.70;;;4.03;;
66270;SDS011;53063;39.614;8.814;2023-04-24T03:44:51;15.48;;;4.68;;
66270;SDS011;53063;39.614;8.814;2023-04-24T03:47:20;9.90;;;3.40;;
66270;SDS011;53063;39.614;8.814;2023-04-24T03:49:48;15.95;;;3.95;;
66270;SDS011;53063;39.614;8.814;2023-04-24T03:52:14;9.02;;;3.70;;
66270;SDS011;53063;39.614;8.814;2023-04-24T03:54:40;7.57;;;3.60;;
66270;SDS011;53063;39.614;8.814;2023-04-24T03:57:06;14.85;;;4.90;;
66270;SDS011;53063;39.614;8.814;2023-04-24T03:59:34;21.02;;;6.40;;
66270;SDS011;53063;39.614;8.814;2023-04-24T04:02:09;22.52;;;7.32;;
66270;SDS011;53063;39.614;8.814;2023-04-24T04:04:36;16.95;;;6.85;;
66270;SDS011;53063;39.614;8.814;2023-04-24T04:07:02;18.63;;;5.35;;
66270;SDS011;53063;39.614;8.814;2023-04-24T04:09:29;12.27;;;4.70;;
66270;SDS011;53063;39.614;8.814;2023-04-24T04:11:55;12.55;;;4.20;;
66270;SDS011;53063;39.614;8.814;2023-04-24T04:14:21;9.65;;;3.97;;
66270;SDS011;53063;39.614;8.814;2023-04-24T04:16:48;7.38;;;3.55;;
66270;SDS011;53063;39.614;8.814;2023-04-24T04:19:14;11.95;;;3.85;;
66270;SDS011;53063;39.614;8.814;2023-04-24T04:21:40;13.80;;;4.60;;
66270;SDS011;53063;39.614;8.814;2023-04-24T04:24:19;15.25;;;4.00;;
66270;SDS011;53063;39.614;8.814;2023-04-24T04:26:50;11.50;;;4.32;;
66270;SDS011;53063;39.614;8.814;2023-04-24T04:29:22;21.20;;;5.63;;
66270;SDS011;53063;39.614;8.814;2023-04-24T04:31:50;22.45;;;5.30;;
66270;SDS011;53063;39.614;8.814;2023-04-24T04:34:16;11.55;;;4.55;;
66270;SDS011;53063;39.614;8.814;2023-04-24T04:36:43;11.68;;;4.70;;
66270;SDS011;53063;39.614;8.814;2023-04-24T04:39:38;20.75;;;4.70;;
66270;SDS011;53063;39.614;8.814;2023-04-24T04:42:08;11.65;;;4.60;;
66270;SDS011;53063;39.614;8.814;2023-04-24T04:44:40;13.90;;;3.97;;
66270;SDS011;53063;39.614;8.814;2023-04-24T04:47:08;12.52;;;4.43;;
66270;SDS011;53063;39.614;8.814;2023-04-24T04:49:36;14.30;;;4.13;;
66270;SDS011;53063;39.614;8.814;2023-04-24T04:52:16;14.05;;;4.30;;
66270;SDS011;53063;39.614;8.814;2023-04-24T04:54:44;13.10;;;4.15;;
66270;SDS011;53063;39.614;8.814;2023-04-24T04:57:11;11.30;;;3.97;;
66270;SDS011;53063;39.614;8.814;2023-04-24T04:59:38;8.57;;;3.67;;
66270;SDS011;53063;39.614;8.814;2023-04-24T05:02:09;11.02;;;4.20;;
66270;SDS011;53063;39.614;8.814;2023-04-24T05:04:35;10.48;;;3.80;;
66270;SDS011;53063;39.614;8.814;2023-04-24T05:07:01;9.52;;;4.38;;
66270;SDS011;53063;39.614;8.814;2023-04-24T05:09:31;10.48;;;4.70;;
66270;SDS011;53063;39.614;8.814;2023-04-24T05:12:01;14.00;;;5.10;;
66270;SDS011;53063;39.614;8.814;2023-04-24T05:14:31;14.57;;;5.88;;
66270;SDS011;53063;39.614;8.814;2023-04-24T05:16:57;12.50;;;5.07;;
66270;SDS011;53063;39.614;8.814;2023-04-24T05:19:25;13.35;;;4.57;;
66270;SDS011;53063;39.614;8.814;2023-04-24T05:21:50;15.13;;;4.85;;
66270;SDS011;53063;39.614;8.814;2023-04-24T05:24:17;13.27;;;4.65;;
66270;SDS011;53063;39.614;8.814;2023-04-24T05:26:43;14.25;;;4.88;;
66270;SDS011;53063;39.614;8.814;2023-04-24T05:29:10;12.65;;;5.00;;
66270;SDS011;53063;39.614;8.814;2023-04-24T05:31:36;11.68;;;5.03;;
66270;SDS011;53063;39.614;8.814;2023-04-24T05:34:02;17.77;;;5.75;;
66270;SDS011;53063;39.614;8.814;2023-04-24T05:36:28;13.32;;;5.40;;
66270;SDS011;53063;39.614;8.814;2023-04-24T05:38:56;12.70;;;5.10;;
66270;SDS011;53063;39.614;8.814;2023-04-24T05:41:21;14.27;;;4.10;;
66270;SDS011;53063;39.614;8.814;2023-04-24T05:43:47;11.90;;;5.03;;
66270;SDS011;53063;39.614;8.814;2023-04-24T05:46:13;18.98;;;4.95;;
66270;SDS011;53063;39.614;8.814;2023-04-24T05:48:39;10.38;;;3.85;;
66270;SDS011;53063;39.614;8.814;2023-04-24T05:51:05;12.38;;;4.30;;
66270;SDS011;53063;39.614;8.814;2023-04-24T05:53:31;15.40;;;3.67;;
66270;SDS011;53063;39.614;8.814;2023-04-24T05:55:57;10.65;;;4.10;;
66270;SDS011;53063;39.614;8.814;2023-04-24T05:58:23;7.18;;;3.55;;
66270;SDS011;53063;39.614;8.814;2023-04-24T06:00:50;10.40;;;3.40;;
66270;SDS011;53063;39.614;8.814;2023-04-24T06:03:16;12.18;;;3.47;;
66270;SDS011;53063;39.614;8.814;2023-04-24T06:05:42;8.90;;;3.40;;
66270;SDS011;53063;39.614;8.814;2023-04-24T06:08:08;14.20;;;3.45;;
66270;SDS011;53063;39.614;8.814;2023-04-24T06:10:37;15.27;;;4.30;;
66270;SDS011;53063;39.614;8.814;2023-04-24T06:13:05;8.23;;;3.53;;
66270;SDS011;53063;39.614;8.814;2023-04-24T06:15:34;12.38;;;3.70;;
66270;SDS011;53063;39.614;8.814;2023-04-24T06:18:05;10.35;;;3.65;;
66270;SDS011;53063;39.614;8.814;2023-04-24T06:20:31;10.18;;;3.42;;
66270;SDS011;53063;39.614;8.814;2023-04-24T06:22:57;9.68;;;3.70;;
66270;SDS011;53063;39.614;8.814;2023-04-24T06:25:25;9.48;;;3.70;;
66270;SDS011;53063;39.614;8.814;2023-04-24T06:27:52;12.05;;;3.92;;
66270;SDS011;53063;39.614;8.814;2023-04-24T06:30:18;16.08;;;3.60;;
66270;SDS011;53063;39.614;8.814;2023-04-24T06:32:44;13.38;;;3.72;;
66270;SDS011;53063;39.614;8.814;2023-04-24T06:35:10;12.25;;;3.78;;
66270;SDS011;53063;39.614;8.814;2023-04-24T06:37:38;10.10;;;4.03;;
66270;SDS011;53063;39.614;8.814;2023-04-24T06:40:05;15.70;;;5.18;;
66270;SDS011;53063;39.614;8.814;2023-04-24T06:42:32;13.20;;;4.85;;
66270;SDS011;53063;39.614;8.814;2023-04-24T06:44:58;11.18;;;4.22;;
66270;SDS011;53063;39.614;8.814;2023-04-24T06:47:24;8.10;;;2.85;;
66270;SDS011;53063;39.614;8.814;2023-04-24T06:49:50;12.52;;;3.55;;
66270;SDS011;53063;39.614;8.814;2023-04-24T06:52:17;9.88;;;3.30;;
66270;SDS011;53063;39.614;8.814;2023-04-24T06:54:44;13.68;;;3.38;;
66270;SDS011;53063;39.614;8.814;2023-04-24T06:57:10;8.70;;;3.10;;
66270;SDS011;53063;39.614;8.814;2023-04-24T06:59:36;8.05;;;3.22;;
66270;SDS011;53063;39.614;8.814;2023-04-24T07:02:02;21.92;;;4.18;;
66270;SDS011;53063;39.614;8.814;2023-04-24T07:04:29;11.57;;;3.78;;
66270;SDS011;53063;39.614;8.814;2023-04-24T07:06:55;11.85;;;3.53;;
66270;SDS011;53063;39.614;8.814;2023-04-24T07:09:23;8.57;;;3.03;;
66270;SDS011;53063;39.614;8.814;2023-04-24T07:11:50;11.60;;;3.75;;
66270;SDS011;53063;39.614;8.814;2023-04-24T07:14:17;7.35;;;3.22;;
66270;SDS011;53063;39.614;8.814;2023-04-24T07:16:43;14.68;;;3.42;;
66270;SDS011;53063;39.614;8.814;2023-04-24T07:19:09;9.90;;;3.03;;
66270;SDS011;53063;39.614;8.814;2023-04-24T07:21:35;14.55;;;3.95;;
66270;SDS011;53063;39.614;8.814;2023-04-24T07:24:01;9.85;;;3.53;;
66270;SDS011;53063;39.614;8.814;2023-04-24T07:26:28;6.15;;;2.92;;
66270;SDS011;53063;39.614;8.814;2023-04-24T07:28:54;8.13;;;2.80;;
66270;SDS011;53063;39.614;8.814;2023-04-24T07:31:20;9.82;;;3.63;;
66270;SDS011;53063;39.614;8.814;2023-04-24T07:33:46;9.18;;;3.08;;
66270;SDS011;53063;39.614;8.814;2023-04-24T07:36:13;10.50;;;3.28;;
66270;SDS011;53063;39.614;8.814;2023-04-24T07:38:42;14.13;;;3.05;;
66270;SDS011;53063;39.614;8.814;2023-04-24T07:41:08;8.80;;;3.17;;
66270;SDS011;53063;39.614;8.814;2023-04-24T07:43:34;9.05;;;2.40;;
66270;SDS011;53063;39.614;8.814;2023-04-24T07:46:00;11.05;;;3.00;;
66270;SDS011;53063;39.614;8.814;2023-04-24T07:48:26;8.32;;;2.47;;
66270;SDS011;53063;39.614;8.814;2023-04-24T07:50:53;7.57;;;2.95;;
66270;SDS011;53063;39.614;8.814;2023-04-24T07:53:19;5.63;;;2.55;;
66270;SDS011;53063;39.614;8.814;2023-04-24T07:55:45;8.55;;;2.85;;
66270;SDS011;53063;39.614;8.814;2023-04-24T07:58:11;6.55;;;2.65;;
66270;SDS011;53063;39.614;8.814;2023-04-24T08:00:37;6.32;;;2.38;;
66270;SDS011;53063;39.614;8.814;2023-04-24T08:03:03;10.20;;;2.92;;
66270;SDS011;53063;39.614;8.814;2023-04-24T08:05:29;9.77;;;3.30;;
66270;SDS011;53063;39.614;8.814;2023-04-24T08:07:55;8.82;;;2.65;;
66270;SDS011;53063;39.614;8.814;2023-04-24T08:10:22;11.60;;;2.70;;
66270;SDS011;53063;39.614;8.814;2023-04-24T08:12:48;9.35;;;2.95;;
66270;SDS011;53063;39.614;8.814;2023-04-24T08:15:14;7.57;;;2.78;;
66270;SDS011;53063;39.614;8.814;2023-04-24T08:17:40;8.35;;;2.65;;
66270;SDS011;53063;39.614;8.814;2023-04-24T08:20:08;6.47;;;2.60;;
66270;SDS011;53063;39.614;8.814;2023-04-24T08:25:05;5.25;;;2.40;;
66270;SDS011;53063;39.614;8.814;2023-04-24T08:27:31;7.18;;;2.50;;
66270;SDS011;53063;39.614;8.814;2023-04-24T08:29:57;6.93;;;3.13;;
66270;SDS011;53063;39.614;8.814;2023-04-24T08:32:26;6.22;;;2.80;;
66270;SDS011;53063;39.614;8.814;2023-04-24T08:34:58;5.00;;;2.40;;
66270;SDS011;53063;39.614;8.814;2023-04-24T08:37:25;8.65;;;2.85;;
66270;SDS011;53063;39.614;8.814;2023-04-24T08:39:52;10.60;;;2.72;;
66270;SDS011;53063;39.614;8.814;2023-04-24T08:42:19;7.68;;;2.67;;
66270;SDS011;53063;39.614;8.814;2023-04-24T08:44:46;6.80;;;2.10;;
66270;SDS011;53063;39.614;8.814;2023-04-24T08:47:14;6.25;;;2.60;;
66270;SDS011;53063;39.614;8.814;2023-04-24T08:49:41;6.22;;;2.20;;
66270;SDS011;53063;39.614;8.814;2023-04-24T08:52:08;9.10;;;2.55;;
66270;SDS011;53063;39.614;8.814;2023-04-24T08:54:35;9.32;;;2.80;;
66270;SDS011;53063;39.614;8.814;2023-04-24T08:57:01;6.20;;;2.35;;
66270;SDS011;53063;39.614;8.814;2023-04-24T08:59:29;9.48;;;3.47;;
66270;SDS011;53063;39.614;8.814;2023-04-24T09:01:56;7.70;;;1.77;;
66270;SDS011;53063;39.614;8.814;2023-04-24T09:04:23;3.75;;;2.28;;
66270;SDS011;53063;39.614;8.814;2023-04-24T09:06:50;4.57;;;2.00;;
66270;SDS011;53063;39.614;8.814;2023-04-24T09:09:21;7.38;;;2.70;;
66270;SDS011;53063;39.614;8.814;2023-04-24T09:11:48;6.15;;;2.05;;
66270;SDS011;53063;39.614;8.814;2023-04-24T09:14:16;5.45;;;1.73;;
66270;SDS011;53063;39.614;8.814;2023-04-24T09:16:43;4.20;;;1.90;;
66270;SDS011;53063;39.614;8.814;2023-04-24T09:19:09;7.32;;;2.28;;
66270;SDS011;53063;39.614;8.814;2023-04-24T09:21:35;5.15;;;2.00;;
66270;SDS011;53063;39.614;8.814;2023-04-24T09:24:02;5.75;;;2.22;;
66270;SDS011;53063;39.614;8.814;2023-04-24T09:26:31;4.07;;;1.88;;
66270;SDS011;53063;39.614;8.814;2023-04-24T09:29:00;6.80;;;2.53;;
66270;SDS011;53063;39.614;8.814;2023-04-24T09:31:28;7.43;;;1.90;;
66270;SDS011;53063;39.614;8.814;2023-04-24T09:33:59;7.68;;;2.15;;
66270;SDS011;53063;39.614;8.814;2023-04-24T09:36:29;4.63;;;1.85;;
66270;SDS011;53063;39.614;8.814;2023-04-24T09:39:00;5.07;;;1.77;;
66270;SDS011;53063;39.614;8.814;2023-04-24T09:41:27;4.10;;;1.73;;
66270;SDS011;53063;39.614;8.814;2023-04-24T09:43:57;5.72;;;1.23;;
66270;SDS011;53063;39.614;8.814;2023-04-24T09:46:35;5.28;;;2.83;;
66270;SDS011;53063;39.614;8.814;2023-04-24T09:49:08;10.80;;;4.00;;
66270;SDS011;53063;39.614;8.814;2023-04-24T09:51:37;6.13;;;1.95;;
66270;SDS011;53063;39.614;8.814;2023-04-24T09:54:03;6.28;;;1.75;;
66270;SDS011;53063;39.614;8.814;2023-04-24T09:56:36;4.95;;;1.58;;
66270;SDS011;53063;39.614;8.814;2023-04-24T09:59:07;3.13;;;1.50;;
66270;SDS011;53063;39.614;8.814;2023-04-24T10:01:33;5.55;;;1.42;;
66270;SDS011;53063;39.614;8.814;2023-04-24T10:03:59;3.80;;;1.23;;
66270;SDS011;53063;39.614;8.814;2023-04-24T10:06:35;2.53;;;1.67;;
66270;SDS011;53063;39.614;8.814;2023-04-24T10:09:02;4.88;;;1.27;;
66270;SDS011;53063;39.614;8.814;2023-04-24T10:11:28;3.30;;;1.45;;
66270;SDS011;53063;39.614;8.814;2023-04-24T10:13:56;4.38;;;1.50;;
66270;SDS011;53063;39.614;8.814;2023-04-24T10:16:22;5.72;;;1.38;;
66270;SDS011;53063;39.614;8.814;2023-04-24T10:18:49;3.42;;;1.20;;
66270;SDS011;53063;39.614;8.814;2023-04-24T10:21:16;4.95;;;1.45;;
66270;SDS011;53063;39.614;8.814;2023-04-24T10:23:42;3.58;;;1.30;;
66270;SDS011;53063;39.614;8.814;2023-04-24T10:26:11;5.65;;;1.05;;
66270;SDS011;53063;39.614;8.814;2023-04-24T10:28:44;3.15;;;1.30;;
66270;SDS011;53063;39.614;8.814;2023-04-24T10:31:11;3.85;;;1.27;;
66270;SDS011;53063;39.614;8.814;2023-04-24T10:33:39;4.75;;;1.38;;
66270;SDS011;53063;39.614;8.814;2023-04-24T10:36:08;3.50;;;1.27;;
66270;SDS011;53063;39.614;8.814;2023-04-24T10:38:35;2.05;;;1.10;;
66270;SDS011;53063;39.614;8.814;2023-04-24T10:43:35;5.40;;;1.52;;
66270;SDS011;53063;39.614;8.814;2023-04-24T10:46:04;3.20;;;1.85;;
66270;SDS011;53063;39.614;8.814;2023-04-24T10:48:31;4.88;;;1.60;;
66270;SDS011;53063;39.614;8.814;2023-04-24T10:50:57;6.13;;;1.50;;
66270;SDS011;53063;39.614;8.814;2023-04-24T10:53:24;4.65;;;1.55;;
66270;SDS011;53063;39.614;8.814;2023-04-24T10:56:03;4.30;;;1.70;;
66270;SDS011;53063;39.614;8.814;2023-04-24T10:58:38;4.32;;;1.60;;
66270;SDS011;53063;39.614;8.814;2023-04-24T11:01:08;3.58;;;1.30;;
66270;SDS011;53063;39.614;8.814;2023-04-24T11:03:53;5.15;;;1.23;;
66270;SDS011;53063;39.614;8.814;2023-04-24T11:06:28;5.70;;;1.58;;
66270;SDS011;53063;39.614;8.814;2023-04-24T11:09:06;8.38;;;2.85;;
66270;SDS011;53063;39.614;8.814;2023-04-24T11:11:34;4.38;;;1.40;;
66270;SDS011;53063;39.614;8.814;2023-04-24T11:14:08;3.10;;;1.38;;
66270;SDS011;53063;39.614;8.814;2023-04-24T11:19:29;2.97;;;1.38;;
66270;SDS011;53063;39.614;8.814;2023-04-24T11:22:00;4.55;;;1.95;;
66270;SDS011;53063;39.614;8.814;2023-04-24T11:24:28;2.53;;;1.20;;
66270;SDS011;53063;39.614;8.814;2023-04-24T11:29:42;7.72;;;1.77;;
66270;SDS011;53063;39.614;8.814;2023-04-24T11:32:38;7.47;;;1.40;;
66270;SDS011;53063;39.614;8.814;2023-04-24T11:37:48;3.55;;;1.25;;
66270;SDS011;53063;39.614;8.814;2023-04-24T11:40:15;5.82;;;1.60;;
66270;SDS011;53063;39.614;8.814;2023-04-24T11:42:48;1.58;;;1.00;;
66270;SDS011;53063;39.614;8.814;2023-04-24T11:45:22;5.95;;;1.70;;
66270;SDS011;53063;39.614;8.814;2023-04-24T11:47:49;3.40;;;1.20;;
66270;SDS011;53063;39.614;8.814;2023-04-24T11:50:16;3.13;;;0.95;;
66270;SDS011;53063;39.614;8.814;2023-04-24T11:52:45;8.80;;;2.00;;
66270;SDS011;53063;39.614;8.814;2023-04-24T11:57:50;2.35;;;1.10;;
66270;SDS011;53063;39.614;8.814;2023-04-24T12:00:25;3.03;;;1.23;;
66270;SDS011;53063;39.614;8.814;2023-04-24T12:03:06;2.85;;;1.05;;
66270;SDS011;53063;39.614;8.814;2023-04-24T12:05:36;5.03;;;1.15;;
66270;SDS011;53063;39.614;8.814;2023-04-24T12:08:02;4.90;;;1.40;;
66270;SDS011;53063;39.614;8.814;2023-04-24T12:10:29;3.20;;;1.48;;
66270;SDS011;53063;39.614;8.814;2023-04-24T12:12:56;5.78;;;1.08;;
66270;SDS011;53063;39.614;8.814;2023-04-24T12:15:23;2.50;;;0.80;;
66270;SDS011;53063;39.614;8.814;2023-04-24T12:17:50;3.53;;;1.10;;
66270;SDS011;53063;39.614;8.814;2023-04-24T12:20:17;3.70;;;1.10;;
66270;SDS011;53063;39.614;8.814;2023-04-24T12:22:51;3.03;;;1.52;;
66270;SDS011;53063;39.614;8.814;2023-04-24T12:25:22;3.83;;;1.13;;
66270;SDS011;53063;39.614;8.814;2023-04-24T12:27:57;2.93;;;1.20;;
66270;SDS011;53063;39.614;8.814;2023-04-24T12:33:10;4.22;;;2.00;;
66270;SDS011;53063;39.614;8.814;2023-04-24T12:35:36;3.15;;;1.08;;
66270;SDS011;53063;39.614;8.814;2023-04-24T12:38:08;4.10;;;1.00;;
66270;SDS011;53063;39.614;8.814;2023-04-24T12:40:37;3.17;;;1.00;;
66270;SDS011;53063;39.614;8.814;2023-04-24T12:43:12;3.53;;;1.20;;
66270;SDS011;53063;39.614;8.814;2023-04-24T12:45:48;4.15;;;1.20;;
66270;SDS011;53063;39.614;8.814;2023-04-24T12:48:14;3.63;;;1.10;;
66270;SDS011;53063;39.614;8.814;2023-04-24T12:50:40;4.05;;;1.40;;
66270;SDS011;53063;39.614;8.814;2023-04-24T12:53:07;4.05;;;1.13;;
66270;SDS011;53063;39.614;8.814;2023-04-24T12:55:34;4.88;;;1.23;;
66270;SDS011;53063;39.614;8.814;2023-04-24T12:58:00;2.85;;;0.80;;
66270;SDS011;53063;39.614;8.814;2023-04-24T13:00:27;5.60;;;1.02;;
66270;SDS011;53063;39.614;8.814;2023-04-24T13:02:55;2.55;;;0.90;;
66270;SDS011;53063;39.614;8.814;2023-04-24T13:05:21;1.13;;;0.68;;
66270;SDS011;53063;39.614;8.814;2023-04-24T13:07:47;2.67;;;1.00;;
66270;SDS011;53063;39.614;8.814;2023-04-24T13:10:13;3.80;;;1.00;;
66270;SDS011;53063;39.614;8.814;2023-04-24T13:12:39;1.67;;;0.60;;
66270;SDS011;53063;39.614;8.814;2023-04-24T13:15:06;1.38;;;0.75;;
66270;SDS011;53063;39.614;8.814;2023-04-24T13:17:32;5.22;;;1.00;;
66270;SDS011;53063;39.614;8.814;2023-04-24T13:19:58;3.35;;;1.10;;
66270;SDS011;53063;39.614;8.814;2023-04-24T13:22:24;7.00;;;1.02;;
66270;SDS011;53063;39.614;8.814;2023-04-24T13:24:50;3.45;;;1.15;;
66270;SDS011;53063;39.614;8.814;2023-04-24T13:27:16;3.47;;;0.70;;
66270;SDS011;53063;39.614;8.814;2023-04-24T13:29:43;1.92;;;0.68;;
66270;SDS011;53063;39.614;8.814;2023-04-24T13:32:09;1.58;;;0.80;;
66270;SDS011;53063;39.614;8.814;2023-04-24T13:34:35;3.17;;;1.05;;
66270;SDS011;53063;39.614;8.814;2023-04-24T13:37:02;2.15;;;0.88;;
66270;SDS011;53063;39.614;8.814;2023-04-24T13:39:33;3.58;;;1.02;;
66270;SDS011;53063;39.614;8.814;2023-04-24T13:41:59;3.53;;;1.25;;
66270;SDS011;53063;39.614;8.814;2023-04-24T13:44:25;3.30;;;0.82;;
66270;SDS011;53063;39.614;8.814;2023-04-24T13:46:52;2.22;;;0.82;;
66270;SDS011;53063;39.614;8.814;2023-04-24T13:49:19;3.60;;;0.95;;
66270;SDS011;53063;39.614;8.814;2023-04-24T13:51:46;1.58;;;0.73;;
66270;SDS011;53063;39.614;8.814;2023-04-24T13:54:12;1.48;;;0.70;;
66270;SDS011;53063;39.614;8.814;2023-04-24T13:56:40;3.60;;;0.90;;
66270;SDS011;53063;39.614;8.814;2023-04-24T13:59:06;3.05;;;1.05;;
66270;SDS011;53063;39.614;8.814;2023-04-24T14:01:32;3.42;;;1.15;;
66270;SDS011;53063;39.614;8.814;2023-04-24T14:03:58;2.50;;;0.70;;
66270;SDS011;53063;39.614;8.814;2023-04-24T14:06:24;4.57;;;0.90;;
66270;SDS011;53063;39.614;8.814;2023-04-24T14:08:51;3.17;;;0.75;;
66270;SDS011;53063;39.614;8.814;2023-04-24T14:11:17;2.75;;;0.90;;
66270;SDS011;53063;39.614;8.814;2023-04-24T14:13:44;2.58;;;0.80;;
66270;SDS011;53063;39.614;8.814;2023-04-24T14:16:10;3.00;;;0.90;;
66270;SDS011;53063;39.614;8.814;2023-04-24T14:18:37;2.28;;;0.82;;
66270;SDS011;53063;39.614;8.814;2023-04-24T14:21:03;2.30;;;0.70;;
66270;SDS011;53063;39.614;8.814;2023-04-24T14:23:29;1.88;;;0.63;;
66270;SDS011;53063;39.614;8.814;2023-04-24T14:25:56;3.00;;;0.80;;
66270;SDS011;53063;39.614;8.814;2023-04-24T14:28:23;3.55;;;0.77;;
66270;SDS011;53063;39.614;8.814;2023-04-24T14:30:49;3.15;;;0.60;;
66270;SDS011;53063;39.614;8.814;2023-04-24T14:33:15;2.60;;;0.80;;
66270;SDS011;53063;39.614;8.814;2023-04-24T14:35:42;4.90;;;1.10;;
66270;SDS011;53063;39.614;8.814;2023-04-24T14:38:08;6.35;;;1.08;;
66270;SDS011;53063;39.614;8.814;2023-04-24T14:40:35;2.03;;;0.82;;
66270;SDS011;53063;39.614;8.814;2023-04-24T14:43:01;2.17;;;0.68;;
66270;SDS011;53063;39.614;8.814;2023-04-24T14:45:27;6.90;;;0.90;;
66270;SDS011;53063;39.614;8.814;2023-04-24T14:47:53;3.15;;;0.60;;
66270;SDS011;53063;39.614;8.814;2023-04-24T14:50:20;4.82;;;0.90;;
66270;SDS011;53063;39.614;8.814;2023-04-24T14:52:46;2.25;;;0.82;;
66270;SDS011;53063;39.614;8.814;2023-04-24T14:55:12;2.65;;;0.90;;
66270;SDS011;53063;39.614;8.814;2023-04-24T14:57:38;3.05;;;0.65;;
66270;SDS011;53063;39.614;8.814;2023-04-24T15:00:05;4.07;;;0.70;;
66270;SDS011;53063;39.614;8.814;2023-04-24T15:02:33;3.70;;;0.93;;
66270;SDS011;53063;39.614;8.814;2023-04-24T15:05:02;2.90;;;0.90;;